Time;durP1;ratioP1;P1;durP2;ratioP2;P2;SDS_P1;SDS_P2;PMS_P1;PMS_P2;Temp;Humidity;BMP_temperature;BMP_pressure;BME280_temperature;BME280_humidity;BME280_pressure;Samples;Min_cycle;Max_cycle;Signal;HPM_P1;HPM_P2
2022/07/11 00:01:22;;;;;;;5.63;2.30;;;;;;;19.26;83.89;101328.69;8302372;28;20399;-59
2022/07/11 00:05:22;;;;;;;4.77;2.23;;;;;;;19.24;83.95;101325.25;8338444;28;20041;-59
2022/07/11 00:09:23;;;;;;;6.47;2.05;;;;;;;19.20;84.54;101328.50;8321805;28;20307;-59
2022/07/11 00:13:23;;;;;;;5.10;2.10;;;;;;;19.13;85.21;101317.38;8314843;28;20030;-59
2022/07/11 00:17:24;;;;;;;8.20;1.92;;;;;;;19.09;85.62;101321.50;8292160;28;20034;-59
2022/07/11 00:21:24;;;;;;;7.53;2.30;;;;;;;19.05;86.45;101313.81;8302241;28;20077;-59
2022/07/11 00:25:25;;;;;;;4.97;1.90;;;;;;;19.04;86.41;101320.34;8293520;28;20042;-59
2022/07/11 00:29:26;;;;;;;6.20;2.10;;;;;;;19.02;86.70;101323.25;8294313;28;20120;-59
2022/07/11 00:33:26;;;;;;;6.20;2.45;;;;;;;19.00;86.98;101317.09;8290304;28;20458;-59
2022/07/11 00:37:27;;;;;;;4.60;2.17;;;;;;;18.96;87.86;101326.69;8294057;28;20038;-59
2022/07/11 00:41:27;;;;;;;12.32;2.33;;;;;;;18.91;88.45;101320.03;8293564;28;20652;-59
2022/07/11 00:45:27;;;;;;;4.25;2.25;;;;;;;18.80;89.91;101314.91;8296669;28;20096;-59
2022/07/11 00:49:28;;;;;;;4.43;2.35;;;;;;;18.74;90.32;101323.81;8300479;28;20034;-59
2022/07/11 00:53:29;;;;;;;5.60;2.20;;;;;;;18.77;89.75;101310.66;8310142;28;20069;-59
2022/07/11 00:57:31;;;;;;;6.80;2.42;;;;;;;18.78;90.15;101311.47;8300314;28;20351;-59
2022/07/11 01:01:33;;;;;;;5.22;2.15;;;;;;;18.79;89.77;101308.56;8307205;28;20030;-59
2022/07/11 01:05:33;;;;;;;3.90;2.35;;;;;;;18.79;89.31;101308.56;8328646;28;20041;-59
2022/07/11 01:09:34;;;;;;;5.03;2.63;;;;;;;18.77;89.34;101299.69;8328001;28;20040;-59
2022/07/11 01:13:34;;;;;;;8.27;3.00;;;;;;;18.75;89.80;101309.09;8327837;28;20709;-59
2022/07/11 01:17:35;;;;;;;4.65;2.20;;;;;;;18.68;90.37;101303.47;8327535;28;20034;-59
2022/07/11 01:21:40;;;;;;;5.32;3.05;;;;;;;18.62;91.01;101295.94;8327860;28;20056;-59
2022/07/11 01:25:40;;;;;;;4.30;2.75;;;;;;;18.59;91.22;101289.94;8319340;28;20563;-59
2022/07/11 01:29:41;;;;;;;7.40;2.90;;;;;;;18.56;91.20;101291.16;8298194;28;20441;-59
2022/07/11 01:33:41;;;;;;;4.00;2.90;;;;;;;18.51;91.82;101288.06;8295670;28;20281;-59
2022/07/11 01:37:42;;;;;;;6.30;2.90;;;;;;;18.41;92.38;101287.41;8295440;28;20413;-59
2022/07/11 01:41:42;;;;;;;7.25;2.90;;;;;;;18.33;92.96;101292.84;8294506;28;20065;-59
2022/07/11 01:45:43;;;;;;;7.28;3.30;;;;;;;18.27;93.62;101287.22;8295488;28;20145;-59
2022/07/11 01:49:43;;;;;;;5.05;3.55;;;;;;;18.19;94.55;101285.31;8296154;28;20037;-59
2022/07/11 01:53:44;;;;;;;6.95;3.05;;;;;;;18.14;95.03;101290.44;8299899;28;20026;-59
2022/07/11 01:57:44;;;;;;;8.13;3.33;;;;;;;18.00;96.33;101288.41;8299009;28;20029;-59
2022/07/11 02:01:44;;;;;;;5.43;3.20;;;;;;;17.80;97.67;101292.47;8304721;28;20029;-59
2022/07/11 02:05:45;;;;;;;4.47;2.97;;;;;;;17.71;98.48;101287.16;8325735;28;20041;-59
2022/07/11 02:09:45;;;;;;;5.50;3.78;;;;;;;17.71;98.83;101288.00;8308188;28;20644;-59
2022/07/11 02:13:46;;;;;;;8.03;3.60;;;;;;;17.69;99.09;101279.13;8294526;28;20125;-59
2022/07/11 02:17:46;;;;;;;10.65;4.10;;;;;;;17.64;99.53;101281.50;8293917;28;20265;-59
2022/07/11 02:21:47;;;;;;;10.10;4.50;;;;;;;17.57;100.00;101272.25;8299604;28;20116;-59
2022/07/11 02:25:47;;;;;;;6.93;3.57;;;;;;;17.53;98.82;101279.06;8294912;28;20041;-59
2022/07/11 02:29:48;;;;;;;10.95;3.88;;;;;;;17.63;99.53;101279.78;8323377;28;20364;-59
2022/07/11 02:33:48;;;;;;;7.88;4.43;;;;;;;17.78;98.30;101278.09;8293747;28;20042;-59
2022/07/11 02:37:49;;;;;;;8.35;4.32;;;;;;;17.81;97.92;101287.84;8317962;28;20034;-59
2022/07/11 02:41:49;;;;;;;8.40;4.10;;;;;;;17.71;98.64;101284.44;8324204;28;20038;-59
2022/07/11 02:45:50;;;;;;;9.80;4.00;;;;;;;17.45;100.00;101287.25;8323727;28;20042;-59
2022/07/11 02:49:50;;;;;;;6.95;4.50;;;;;;;17.30;100.00;101280.69;8306696;28;20280;-58
2022/07/11 02:53:50;;;;;;;10.63;4.83;;;;;;;17.25;100.00;101283.91;8321805;28;20057;-59
2022/07/11 02:57:51;;;;;;;10.38;5.82;;;;;;;17.20;100.00;101290.91;8295057;28;20265;-59
2022/07/11 03:01:51;;;;;;;8.32;5.07;;;;;;;17.26;100.00;101287.50;8303961;28;20040;-59
2022/07/11 03:05:51;;;;;;;8.87;5.50;;;;;;;17.19;100.00;101294.63;8298817;28;20053;-59
2022/07/11 03:09:53;;;;;;;7.10;5.47;;;;;;;17.12;100.00;101291.72;8294084;28;20355;-59
2022/07/11 03:13:53;;;;;;;9.75;5.47;;;;;;;17.02;100.00;101290.97;8293471;28;20279;-59
2022/07/11 03:17:54;;;;;;;10.05;5.82;;;;;;;16.91;100.00;101287.66;8293384;28;20045;-60
2022/07/11 03:21:54;;;;;;;8.48;5.65;;;;;;;17.06;100.00;101303.28;8298254;28;20041;-60
2022/07/11 03:25:55;;;;;;;9.23;5.97;;;;;;;16.98;100.00;101299.63;8293212;28;20089;-60
2022/07/11 03:29:55;;;;;;;12.60;5.43;;;;;;;16.96;100.00;101309.91;8297860;28;20041;-60
2022/07/11 03:33:56;;;;;;;7.38;4.03;;;;;;;16.92;100.00;101306.63;8293148;28;20038;-60
2022/07/11 03:37:56;;;;;;;5.35;4.25;;;;;;;16.77;100.00;101299.22;8292555;28;20042;-60
2022/07/11 03:41:56;;;;;;;7.95;4.50;;;;;;;16.76;100.00;101305.66;8292399;28;20137;-60
2022/07/11 03:45:57;;;;;;;8.93;4.38;;;;;;;16.52;100.00;101308.22;8293056;28;20351;-60
2022/07/11 03:49:58;;;;;;;10.70;6.72;;;;;;;16.63;100.00;101307.97;8295149;28;20080;-60
2022/07/11 03:53:58;;;;;;;15.48;6.38;;;;;;;16.77;100.00;101307.41;8293341;28;20044;-60
2022/07/11 03:57:59;;;;;;;8.07;5.67;;;;;;;16.68;100.00;101311.09;8319099;28;20041;-60
2022/07/11 04:01:59;;;;;;;10.18;5.70;;;;;;;16.64;100.00;101317.88;8323944;28;20637;-60
2022/07/11 04:05:59;;;;;;;14.27;6.05;;;;;;;16.72;100.00;101315.22;8324249;28;20053;-60
2022/07/11 04:10:00;;;;;;;9.00;5.43;;;;;;;16.70;100.00;101314.50;8327708;28;20037;-60
2022/07/11 04:14:00;;;;;;;11.07;6.03;;;;;;;16.50;100.00;101322.03;8326947;28;20284;-60
2022/07/11 04:18:01;;;;;;;12.93;6.73;;;;;;;16.70;100.00;101307.16;8324591;28;20038;-60
2022/07/11 04:22:01;;;;;;;11.10;6.63;;;;;;;16.90;100.00;101325.03;8327270;28;20277;-60
2022/07/11 04:26:02;;;;;;;11.80;6.35;;;;;;;17.01;100.00;101321.16;8298855;28;20135;-60
2022/07/11 04:30:03;;;;;;;15.07;6.53;;;;;;;17.17;100.00;101315.81;8300770;28;20478;-60
2022/07/11 04:34:03;;;;;;;16.63;7.00;;;;;;;17.19;100.00;101321.97;8298536;28;20042;-60
2022/07/11 04:38:04;;;;;;;11.88;7.72;;;;;;;17.31;100.00;101326.13;8297911;28;20498;-60
2022/07/11 04:42:06;;;;;;;10.77;6.63;;;;;;;17.36;100.00;101331.97;8295876;28;20039;-60
2022/07/11 04:46:06;;;;;;;13.43;6.47;;;;;;;17.51;100.00;101330.34;8313184;28;20138;-60
2022/07/11 04:50:08;;;;;;;12.07;7.17;;;;;;;17.71;100.00;101325.47;8297717;28;20038;-60
2022/07/11 04:54:09;;;;;;;17.00;6.97;;;;;;;17.80;100.00;101333.50;8302509;28;20276;-60
2022/07/11 04:58:09;;;;;;;15.33;7.20;;;;;;;17.96;100.00;101335.44;8301934;28;20042;-60
2022/07/11 05:02:09;;;;;;;15.70;7.47;;;;;;;17.93;100.00;101336.59;8310145;28;20280;-60
2022/07/11 05:06:10;;;;;;;11.95;6.68;;;;;;;17.97;100.00;101337.13;8328841;28;20421;-60
2022/07/11 05:10:10;;;;;;;12.25;6.93;;;;;;;17.94;100.00;101332.00;8322223;28;20064;-60
2022/07/11 05:14:10;;;;;;;15.50;7.82;;;;;;;17.86;100.00;101334.69;8289785;28;20092;-60
2022/07/11 05:18:11;;;;;;;18.45;7.78;;;;;;;17.96;100.00;101340.91;8288180;28;20057;-60
2022/07/11 05:22:11;;;;;;;20.03;7.90;;;;;;;17.96;100.00;101347.22;8289578;28;20087;-60
2022/07/11 05:26:12;;;;;;;18.05;7.38;;;;;;;17.96;100.00;101349.94;8289653;28;20858;-60
2022/07/11 05:30:12;;;;;;;15.52;6.85;;;;;;;18.06;100.00;101352.53;8289783;28;20041;-60
2022/07/11 05:34:12;;;;;;;14.40;6.60;;;;;;;18.19;100.00;101347.41;8288718;28;20072;-60
2022/07/11 05:38:13;;;;;;;16.88;6.43;;;;;;;18.24;100.00;101348.63;8289717;28;20359;-60
2022/07/11 05:42:14;;;;;;;10.80;5.47;;;;;;;18.15;100.00;101357.00;8288134;28;20040;-60
2022/07/11 05:46:14;;;;;;;9.77;5.15;;;;;;;18.24;100.00;101361.47;8289776;28;20461;-60
2022/07/11 05:50:15;;;;;;;11.40;5.67;;;;;;;18.28;100.00;101363.69;8289206;28;20042;-60
2022/07/11 05:54:16;;;;;;;10.65;4.70;;;;;;;18.36;100.00;101366.44;8290292;28;22483;-60
2022/07/11 05:58:16;;;;;;;9.00;4.78;;;;;;;18.35;100.00;101370.19;8289480;28;20064;-60
2022/07/11 06:02:18;;;;;;;9.33;5.40;;;;;;;18.27;100.00;101363.88;8298958;28;20041;-60
2022/07/11 06:06:18;;;;;;;9.27;4.70;;;;;;;18.25;100.00;101364.03;8312674;28;20311;-60
2022/07/11 06:10:19;;;;;;;7.00;4.28;;;;;;;18.28;100.00;101377.38;8301124;28;20540;-60
2022/07/11 06:14:19;;;;;;;13.50;4.97;;;;;;;18.31;100.00;101368.84;8284620;28;20045;-60
2022/07/11 06:18:20;;;;;;;8.43;4.50;;;;;;;18.29;100.00;101365.41;8285290;28;20295;-60
2022/07/11 06:22:21;;;;;;;11.98;4.25;;;;;;;18.40;100.00;101376.06;8288848;28;20084;-60
2022/07/11 06:26:21;;;;;;;14.90;4.03;;;;;;;18.46;100.00;101372.66;8286081;28;20061;-60
2022/07/11 06:30:21;;;;;;;15.60;3.83;;;;;;;18.49;100.00;101376.91;8295521;28;20518;-60
2022/07/11 06:34:22;;;;;;;6.18;2.53;;;;;;;18.56;100.00;101378.81;8283902;28;20274;-60
2022/07/11 06:38:22;;;;;;;4.95;3.00;;;;;;;18.54;99.60;101369.91;8284815;28;20045;-60
2022/07/11 06:42:23;;;;;;;6.18;2.83;;;;;;;18.56;99.48;101375.19;8284373;28;20045;-60
2022/07/11 06:46:23;;;;;;;7.53;2.93;;;;;;;18.58;98.89;101371.28;8284745;28;20334;-60
2022/07/11 06:50:23;;;;;;;10.13;3.30;;;;;;;18.62;99.05;101378.13;8284273;28;20277;-60
2022/07/11 06:54:24;;;;;;;10.77;3.30;;;;;;;18.67;98.12;101375.69;8283379;28;20045;-60
2022/07/11 06:58:31;;;;;;;8.68;3.35;;;;;;;18.74;99.51;101382.22;8284460;28;20293;-60
2022/07/11 07:02:32;;;;;;;8.20;3.78;;;;;;;18.74;98.30;101371.28;8293608;28;20029;-60
2022/07/11 07:06:32;;;;;;;10.93;3.83;;;;;;;18.85;98.19;101376.38;8315374;28;20404;-60
2022/07/11 07:10:32;;;;;;;7.45;3.35;;;;;;;18.84;97.65;101371.94;8304874;28;20347;-60
2022/07/11 07:14:33;;;;;;;7.63;3.63;;;;;;;18.83;97.38;101364.75;8297175;28;20084;-60
2022/07/11 07:18:33;;;;;;;7.93;3.50;;;;;;;18.94;97.05;101372.59;8287363;28;20766;-60
2022/07/11 07:22:35;;;;;;;6.43;3.05;;;;;;;18.98;97.66;101373.13;8290245;28;20498;-60
2022/07/11 07:26:35;;;;;;;6.72;2.90;;;;;;;18.96;96.47;101378.78;8283767;28;20386;-60
2022/07/11 07:30:36;;;;;;;7.70;3.58;;;;;;;19.02;96.79;101383.56;8285597;28;20052;-60
2022/07/11 07:34:36;;;;;;;7.65;3.08;;;;;;;19.13;97.22;101383.19;8283769;28;20038;-60
2022/07/11 07:38:37;;;;;;;10.85;3.63;;;;;;;19.04;96.39;101384.25;8283708;28;20133;-60
2022/07/11 07:42:37;;;;;;;7.88;3.50;;;;;;;19.07;96.28;101389.38;8284759;28;20065;-60
2022/07/11 07:46:37;;;;;;;10.20;3.40;;;;;;;19.05;97.65;101385.09;8290128;28;20113;-60
2022/07/11 07:50:38;;;;;;;8.52;3.08;;;;;;;19.03;96.80;101388.00;8295109;28;20136;-60
2022/07/11 07:54:39;;;;;;;9.33;3.57;;;;;;;19.06;97.59;101386.81;8314856;28;20447;-60
2022/07/11 07:58:39;;;;;;;9.27;3.20;;;;;;;19.06;97.39;101387.66;8305705;28;20289;-60
2022/07/11 08:02:40;;;;;;;5.82;3.30;;;;;;;19.20;96.03;101386.97;8306595;28;20052;-60
2022/07/11 08:06:40;;;;;;;7.15;3.28;;;;;;;19.20;96.81;101381.47;8319430;28;20042;-60
2022/07/11 08:10:40;;;;;;;8.45;3.28;;;;;;;19.31;97.84;101381.13;8293304;28;20052;-60
2022/07/11 08:14:41;;;;;;;4.50;2.72;;;;;;;19.38;96.45;101376.66;8289191;28;20092;-60
2022/07/11 08:18:41;;;;;;;7.05;3.15;;;;;;;19.52;96.94;101377.81;8287983;28;20042;-60
2022/07/11 08:22:42;;;;;;;8.77;2.40;;;;;;;19.29;95.16;101382.31;8294813;28;20583;-60
2022/07/11 08:26:42;;;;;;;7.35;2.20;;;;;;;19.49;95.37;101386.41;8288989;28;20346;-60
2022/07/11 08:30:43;;;;;;;9.83;2.17;;;;;;;19.43;94.22;101384.34;8289148;28;20038;-60
2022/07/11 08:34:45;;;;;;;3.33;2.20;;;;;;;19.46;94.09;101386.75;8295394;28;20788;-60
2022/07/11 08:38:46;;;;;;;3.22;1.67;;;;;;;19.52;93.94;101387.91;8288610;28;20620;-60
2022/07/11 08:42:47;;;;;;;6.43;1.92;;;;;;;19.59;92.64;101383.44;8291910;28;20063;-60
2022/07/11 08:46:49;;;;;;;3.40;1.65;;;;;;;19.70;93.14;101380.31;8287744;28;20072;-60
2022/07/11 08:50:50;;;;;;;4.03;1.70;;;;;;;19.61;93.92;101381.38;8288168;28;20038;-60
2022/07/11 08:54:51;;;;;;;12.77;2.55;;;;;;;19.70;93.91;101374.81;8294896;28;20042;-60
2022/07/11 08:58:52;;;;;;;7.03;2.40;;;;;;;19.60;93.43;101385.16;8294161;28;20587;-61
2022/07/11 09:02:53;;;;;;;7.10;2.40;;;;;;;19.66;94.05;101385.28;8305970;28;20523;-60
2022/07/11 09:06:53;;;;;;;9.27;3.70;;;;;;;19.62;93.21;101388.56;8310747;28;20049;-60
2022/07/11 09:10:54;;;;;;;8.07;4.05;;;;;;;19.61;93.28;101392.34;8299139;28;20169;-60
2022/07/11 09:14:54;;;;;;;9.87;3.47;;;;;;;19.66;93.35;101396.25;8285324;28;20050;-60
2022/07/11 09:18:55;;;;;;;4.18;3.35;;;;;;;19.62;92.92;101400.41;8285459;28;20700;-61
2022/07/11 09:27:15;;;;;;;4.05;2.95;;;;;;;19.92;93.55;101402.31;8289659;28;20049;-60
2022/07/11 09:31:17;;;;;;;6.37;2.90;;;;;;;20.05;92.95;101399.84;8289963;28;20056;-60
2022/07/11 09:35:17;;;;;;;5.18;2.70;;;;;;;20.17;92.06;101400.31;8284485;28;20356;-60
2022/07/11 09:39:20;;;;;;;7.78;4.35;;;;;;;20.17;90.59;101394.81;8284809;28;20536;-60
2022/07/11 09:43:25;;;;;;;6.75;3.30;;;;;;;20.01;91.44;101390.25;8289807;28;20498;-60
2022/07/11 09:47:25;;;;;;;6.03;3.53;;;;;;;20.06;91.06;101395.22;8310058;28;20045;-60
2022/07/11 09:51:26;;;;;;;9.90;2.97;;;;;;;20.05;91.39;101396.22;8296820;28;20041;-60
2022/07/11 09:55:28;;;;;;;7.90;2.88;;;;;;;20.02;91.87;101391.97;8283004;28;20434;-60
2022/07/11 09:59:28;;;;;;;5.45;2.58;;;;;;;20.14;91.07;101384.19;8298263;28;20098;-61
2022/07/11 10:03:29;;;;;;;3.47;2.27;;;;;;;20.30;91.23;101378.59;8289829;28;20054;-61
2022/07/11 10:07:30;;;;;;;3.40;2.03;;;;;;;20.31;91.03;101374.84;8281087;28;20332;-60
2022/07/11 10:11:32;;;;;;;4.35;2.05;;;;;;;20.29;89.72;101372.25;8284180;28;20052;-60
2022/07/11 10:15:36;;;;;;;2.22;1.30;;;;;;;20.51;90.86;101376.03;8283296;28;20542;-60
2022/07/11 10:19:47;;;;;;;3.70;1.80;;;;;;;20.34;89.88;101382.72;8306242;28;20405;-60
2022/07/11 10:24:02;;;;;;;4.53;1.80;;;;;;;20.51;90.75;101387.03;8302725;28;20065;-60
2022/07/11 10:28:25;;;;;;;4.25;1.58;;;;;;;20.46;89.93;101390.31;8291758;28;20050;-60
2022/07/11 10:32:26;;;;;;;6.72;1.80;;;;;;;20.35;89.82;101392.66;8293309;28;20045;-60
2022/07/11 10:36:27;;;;;;;3.92;2.25;;;;;;;20.30;89.88;101401.44;8301776;28;20044;-60
2022/07/11 10:40:49;;;;;;;7.03;1.90;;;;;;;20.51;90.17;101400.75;8290197;28;20103;-60
2022/07/11 10:44:54;;;;;;;2.85;1.67;;;;;;;20.50;88.09;101396.31;8282993;28;20042;-60
2022/07/11 10:48:58;;;;;;;;;;;;;;;20.57;88.41;101398.16;8283266;28;20465;-60
2022/07/11 10:53:06;;;;;;;3.15;1.50;;;;;;;20.53;88.89;101407.81;8300438;28;19925;-60
2022/07/11 10:57:23;;;;;;;3.40;1.45;;;;;;;20.60;87.49;101407.91;8294688;28;20429;-60
2022/07/11 11:01:27;;;;;;;2.60;1.50;;;;;;;20.54;87.65;101408.63;8291767;28;20037;-60
2022/07/11 11:05:49;;;;;;;6.70;1.38;;;;;;;20.52;88.66;101408.81;8312572;28;20048;-60
2022/07/11 11:09:49;;;;;;;3.65;1.25;;;;;;;20.47;88.31;101425.03;8280118;28;20044;-60
2022/07/11 11:14:26;;;;;;;3.28;1.40;;;;;;;20.52;89.15;101410.75;8279153;28;20048;-60
2022/07/11 11:18:44;;;;;;;4.32;1.10;;;;;;;20.63;88.59;101413.03;8309035;28;20498;-60
2022/07/11 11:23:08;;;;;;;2.47;1.23;;;;;;;20.73;87.52;101408.13;8303813;28;20410;-60
2022/07/11 11:27:18;;;;;;;4.55;1.10;;;;;;;20.84;87.33;101413.22;8306611;28;20072;-60
2022/07/11 11:31:20;;;;;;;2.67;1.00;;;;;;;20.86;86.76;101413.88;8281990;28;20050;-60
2022/07/11 11:35:20;;;;;;;2.70;0.80;;;;;;;20.82;87.23;101413.41;8289120;28;20116;-60
2022/07/11 11:39:22;;;;;;;5.38;1.38;;;;;;;20.89;88.30;101411.59;8286217;28;20091;-60
2022/07/11 11:43:23;;;;;;;3.30;1.13;;;;;;;20.83;88.66;101414.25;8296553;28;20038;-60
2022/07/11 11:47:23;;;;;;;3.50;1.08;;;;;;;20.72;88.37;101417.44;8288886;28;20468;-61
2022/07/11 11:51:27;;;;;;;6.28;1.48;;;;;;;20.70;88.01;101419.50;8281978;28;20123;-60
2022/07/11 11:55:28;;;;;;;4.23;1.27;;;;;;;20.75;88.03;101417.06;8287102;28;20163;-60
2022/07/11 11:59:30;;;;;;;4.68;1.50;;;;;;;20.75;88.07;101411.56;8294848;28;20052;-60
2022/07/11 12:03:55;;;;;;;4.90;1.30;;;;;;;21.03;86.92;101405.34;8312459;28;20417;-60
2022/07/11 12:07:55;;;;;;;6.93;1.65;;;;;;;21.10;86.51;101402.66;8293887;28;20073;-60
2022/07/11 12:12:58;;;;;;;4.50;1.67;;;;;;;21.28;85.86;101411.44;8313353;28;20049;-60
2022/07/11 12:16:49;;;;;;;5.28;1.58;;;;;;;21.53;83.67;101406.53;8309241;28;20567;-60
2022/07/11 12:20:40;;;;;;;3.50;1.83;;;;;;;21.77;84.73;101404.34;8313008;28;20263;-61
2022/07/11 12:24:47;;;;;;;2.45;1.17;;;;;;;21.91;81.92;101405.38;8294377;28;20112;-61
2022/07/11 12:29:11;;;;;;;5.55;2.22;;;;;;;21.57;81.96;101408.72;8291705;28;20049;-60
2022/07/11 12:33:13;;;;;;;4.78;1.40;;;;;;;21.51;84.23;101409.47;8317668;28;20460;-60
2022/07/11 12:37:16;;;;;;;4.93;1.20;;;;;;;21.78;86.41;101406.06;8286281;28;20507;-60
2022/07/11 12:41:17;;;;;;;5.50;1.40;;;;;;;21.43;83.04;101395.78;8286346;28;20169;-60
2022/07/11 12:45:17;;;;;;;5.32;1.10;;;;;;;21.52;84.14;101402.91;8287306;28;20324;-60
2022/07/11 12:49:18;;;;;;;2.97;1.25;;;;;;;21.62;84.04;101403.47;8286894;28;20049;-60
2022/07/11 12:53:18;;;;;;;3.45;1.42;;;;;;;21.55;83.07;101396.16;8289079;28;20844;-60
2022/07/11 12:57:20;;;;;;;4.03;1.10;;;;;;;21.64;83.54;101398.63;8288820;28;20271;-60
2022/07/11 13:01:21;;;;;;;1.67;1.17;;;;;;;21.62;83.57;101395.22;8294206;28;20037;-60
2022/07/11 13:05:21;;;;;;;4.57;1.33;;;;;;;21.56;84.66;101390.47;8312401;28;20033;-60
2022/07/11 13:09:22;;;;;;;3.38;1.45;;;;;;;21.55;83.77;101377.75;8313226;28;20575;-60
2022/07/11 13:13:22;;;;;;;3.50;1.30;;;;;;;21.82;83.61;101385.34;8317907;28;20038;-60
2022/07/11 13:17:22;;;;;;;1.70;1.23;;;;;;;21.86;83.55;101385.84;8312064;28;20272;-60
2022/07/11 13:21:23;;;;;;;1.37;1.27;;;;;;;21.86;83.66;101386.66;8296036;28;20269;-60
2022/07/11 13:25:24;;;;;;;4.60;1.33;;;;;;;21.77;82.05;101393.34;8297769;28;20308;-60
2022/07/11 13:29:25;;;;;;;1.75;0.90;;;;;;;21.65;83.47;101394.81;8308947;28;20495;-60
2022/07/11 13:33:26;;;;;;;2.42;1.02;;;;;;;21.67;83.95;101397.38;8299375;28;20049;-60
2022/07/11 13:37:26;;;;;;;4.75;1.13;;;;;;;21.65;83.53;101394.00;8300127;28;20038;-60
2022/07/11 13:41:26;;;;;;;3.17;0.90;;;;;;;21.84;83.90;101397.03;8299350;28;20056;-60
2022/07/11 13:45:27;;;;;;;2.13;1.30;;;;;;;21.95;81.90;101396.53;8305153;28;20289;-61
2022/07/11 13:49:29;;;;;;;5.20;2.00;;;;;;;22.13;82.29;101402.47;8292166;28;20042;-60
2022/07/11 13:53:29;;;;;;;3.08;1.70;;;;;;;21.92;81.32;101402.44;8306214;28;20824;-60
2022/07/11 13:57:30;;;;;;;5.32;1.77;;;;;;;21.78;81.92;101397.81;8295138;28;20618;-60
2022/07/11 14:01:30;;;;;;;4.43;2.08;;;;;;;21.86;82.70;101386.66;8303277;28;20371;-60
2022/07/11 14:05:30;;;;;;;2.38;1.65;;;;;;;21.96;81.62;101398.22;8307848;28;20569;-60
2022/07/11 14:09:31;;;;;;;7.53;2.00;;;;;;;22.11;82.79;101396.31;8284437;28;20091;-60
2022/07/11 14:13:31;;;;;;;6.25;2.10;;;;;;;22.00;80.80;101405.09;8307851;28;20037;-60
2022/07/11 14:17:32;;;;;;;6.65;2.00;;;;;;;21.98;80.76;101392.53;8292392;28;20034;-60
2022/07/11 14:21:33;;;;;;;1.80;1.23;;;;;;;22.13;81.59;101393.34;8297572;28;20103;-60
2022/07/11 14:25:33;;;;;;;3.08;1.85;;;;;;;22.09;81.17;101400.31;8287203;28;20126;-60
2022/07/11 14:29:34;;;;;;;6.05;1.40;;;;;;;22.26;79.57;101394.34;8301990;28;20417;-60
2022/07/11 14:33:35;;;;;;;13.20;1.33;;;;;;;22.15;80.17;101392.13;8307863;28;20045;-60
2022/07/11 14:37:37;;;;;;;5.03;1.33;;;;;;;22.39;79.60;101400.03;8284780;28;20034;-60
2022/07/11 14:41:38;;;;;;;4.18;1.13;;;;;;;22.34;78.95;101385.97;8283022;28;20030;-60
2022/07/11 14:45:38;;;;;;;10.10;1.95;;;;;;;22.65;79.73;101389.31;8282122;28;20038;-60
2022/07/11 14:49:38;;;;;;;6.38;1.75;;;;;;;22.52;78.17;101383.66;8285664;28;20123;-60
2022/07/11 14:53:39;;;;;;;5.75;1.30;;;;;;;22.89;78.75;101375.09;8284608;28;20482;-60
2022/07/11 14:57:39;;;;;;;6.13;1.10;;;;;;;22.79;77.61;101382.88;8282126;28;20061;-60
2022/07/11 15:01:40;;;;;;;2.83;0.70;;;;;;;22.93;76.97;101379.16;8292761;28;20045;-60
2022/07/11 15:05:40;;;;;;;2.15;1.02;;;;;;;22.84;76.65;101372.06;8281946;28;20038;-60
2022/07/11 15:14:01;;;;;;;2.95;1.02;;;;;;;22.98;75.76;101365.63;8298644;28;20045;-60
2022/07/11 15:18:01;;;;;;;2.10;0.60;;;;;;;22.89;76.13;101375.09;8283077;28;20049;-60
2022/07/11 15:22:02;;;;;;;3.20;1.08;;;;;;;22.67;77.25;101376.19;8287452;28;20063;-60
2022/07/11 15:26:03;;;;;;;4.85;1.02;;;;;;;22.54;78.71;101381.53;8294759;28;20124;-60
2022/07/11 15:30:04;;;;;;;3.80;0.60;;;;;;;22.50;78.79;101385.75;8292287;28;20080;-60
2022/07/11 15:34:04;;;;;;;2.70;0.52;;;;;;;22.49;79.14;101381.28;8290643;28;20041;-60
2022/07/11 15:38:05;;;;;;;8.40;1.45;;;;;;;22.79;78.74;101384.75;8313907;28;20048;-60
2022/07/11 15:42:05;;;;;;;6.60;1.10;;;;;;;22.85;77.72;101372.94;8311600;28;20079;-60
2022/07/11 15:46:06;;;;;;;13.43;0.90;;;;;;;22.75;78.45;101376.03;8296330;28;20756;-60
2022/07/11 15:50:07;;;;;;;1.13;0.70;;;;;;;22.76;76.75;101375.00;8282587;28;20382;-60
2022/07/11 15:54:08;;;;;;;1.75;0.60;;;;;;;23.08;78.28;101368.88;8295890;28;20037;-60
2022/07/11 15:58:08;;;;;;;2.78;0.90;;;;;;;22.88;77.17;101362.34;8308583;28;20046;-60
2022/07/11 16:02:09;;;;;;;3.75;0.80;;;;;;;23.18;77.10;101357.50;8303365;28;20044;-60
2022/07/11 16:06:09;;;;;;;2.33;0.80;;;;;;;23.37;73.59;101362.31;8322775;28;20588;-60
2022/07/11 16:10:10;;;;;;;2.20;0.70;;;;;;;23.29;76.14;101358.88;8319217;28;20279;-58
2022/07/11 16:14:10;;;;;;;4.70;1.20;;;;;;;23.16;74.82;101371.50;8301786;28;20045;-58
2022/07/11 16:18:12;;;;;;;2.53;1.33;;;;;;;23.05;74.83;101368.41;8290111;28;20490;-57
2022/07/11 16:22:12;;;;;;;7.45;1.08;;;;;;;22.85;76.17;101365.53;8289678;28;20147;-58
2022/07/11 16:26:15;;;;;;;2.63;1.02;;;;;;;23.01;75.55;101356.94;8286805;28;20053;-58
2022/07/11 16:30:15;;;;;;;1.45;0.73;;;;;;;22.99;75.48;101352.66;8299979;28;20052;-58
2022/07/11 16:34:16;;;;;;;1.98;0.93;;;;;;;22.94;75.70;101358.78;8313326;28;20498;-58
2022/07/11 16:38:16;;;;;;;2.38;1.35;;;;;;;22.83;78.01;101353.81;8318163;28;20141;-58
2022/07/11 16:43:20;;;;;;;3.38;1.17;;;;;;;22.84;76.45;101351.94;8286858;28;20037;-58
2022/07/11 16:46:37;;;;;;;1.40;1.23;;;;;;;22.82;75.33;101349.38;8284707;28;20480;-58
2022/07/11 16:50:37;;;;;;;1.43;1.00;;;;;;;22.95;74.94;101349.47;8284212;28;20445;-58
2022/07/11 16:54:38;;;;;;;1.58;1.05;;;;;;;22.99;74.49;101352.66;8292331;28;20280;-58
2022/07/11 16:58:39;;;;;;;1.40;1.05;;;;;;;22.85;75.00;101350.88;8289204;28;20042;-59
2022/07/11 17:02:40;;;;;;;1.92;1.13;;;;;;;22.92;74.86;101352.63;8299946;28;20126;-58
2022/07/11 17:06:40;;;;;;;3.38;1.02;;;;;;;23.00;75.03;101348.88;8309956;28;20042;-58
2022/07/11 17:10:41;;;;;;;1.13;1.02;;;;;;;23.03;75.84;101354.81;8288952;28;20052;-58
2022/07/11 17:14:41;;;;;;;1.50;0.68;;;;;;;22.96;76.14;101353.94;8284588;28;20141;-57
2022/07/11 17:18:42;;;;;;;2.20;0.75;;;;;;;22.84;75.83;101341.72;8289327;28;20041;-58
2022/07/11 17:22:42;;;;;;;3.95;1.00;;;;;;;22.93;75.52;101354.31;8300645;28;20062;-59
2022/07/11 17:26:44;;;;;;;2.30;1.05;;;;;;;22.90;75.22;101349.22;8282508;28;20050;-59
2022/07/11 17:30:46;;;;;;;3.33;1.00;;;;;;;22.90;75.64;101345.59;8286382;28;20029;-58
2022/07/11 17:34:46;;;;;;;1.25;0.60;;;;;;;22.68;75.83;101347.53;8295857;28;20042;-58
2022/07/11 17:38:47;;;;;;;1.10;0.50;;;;;;;22.57;76.95;101358.25;8283230;28;20110;-58
2022/07/11 17:42:47;;;;;;;3.40;0.88;;;;;;;22.52;77.13;101350.59;8283347;28;20096;-58
2022/07/11 17:46:48;;;;;;;2.97;0.70;;;;;;;22.57;77.62;101359.09;8291432;28;20387;-58
2022/07/11 17:50:48;;;;;;;0.70;0.60;;;;;;;22.59;77.14;101353.38;8288897;28;20049;-58
2022/07/11 17:54:49;;;;;;;1.55;0.63;;;;;;;22.46;76.10;101345.81;8287201;28;20773;-58
2022/07/11 17:58:49;;;;;;;1.27;0.70;;;;;;;22.53;76.78;101351.41;8285017;28;20045;-58
2022/07/11 18:02:50;;;;;;;1.05;0.57;;;;;;;22.47;76.50;101347.53;8301289;28;20095;-58
2022/07/11 18:06:51;;;;;;;2.38;0.75;;;;;;;22.32;76.60;101355.00;8313745;28;20412;-58
2022/07/11 18:10:53;;;;;;;3.17;1.02;;;;;;;22.24;77.48;101346.88;8297558;28;20041;-58
2022/07/11 18:14:55;;;;;;;5.78;0.80;;;;;;;22.14;77.72;101351.84;8314891;28;20461;-58
2022/07/11 18:18:56;;;;;;;2.45;0.88;;;;;;;22.06;77.81;101343.72;8304518;28;20041;-58
2022/07/11 18:22:56;;;;;;;1.70;0.60;;;;;;;21.91;79.38;101345.66;8299012;28;20042;-58
2022/07/11 18:26:57;;;;;;;6.70;0.50;;;;;;;21.90;78.70;101349.47;8282930;28;20393;-58
2022/07/11 18:30:57;;;;;;;2.55;0.60;;;;;;;21.82;79.06;101346.81;8286997;28;20577;-59
2022/07/11 18:34:57;;;;;;;0.87;0.40;;;;;;;21.76;79.86;101347.59;8282767;28;20045;-59
2022/07/11 18:43:18;;;;;;;0.52;0.40;;;;;;;21.47;82.39;101338.47;8281821;28;20449;-59
2022/07/11 18:47:18;;;;;;;1.40;0.80;;;;;;;21.17;85.47;101340.38;8280382;28;20064;-59
2022/07/11 18:51:19;;;;;;;2.25;0.60;;;;;;;21.00;87.46;101339.72;8294359;28;20311;-58